createdAt,value
2023-09-29T00:00:18.740Z,8.82
2023-09-29T00:02:47.158Z,10.85
2023-09-29T00:05:16.533Z,8.15
2023-09-29T00:07:44.061Z,8.77
2023-09-29T00:10:15.460Z,8.93
2023-09-29T00:12:43.195Z,8.50
2023-09-29T00:15:10.742Z,8.63
2023-09-29T00:17:39.963Z,10.38
2023-09-29T00:20:26.324Z,9.25
2023-09-29T00:22:57.852Z,9.25
2023-09-29T00:25:25.274Z,8.77
2023-09-29T00:27:53.035Z,8.60
2023-09-29T00:30:20.345Z,8.15
2023-09-29T00:32:48.574Z,8.18
2023-09-29T00:35:26.226Z,9.13
2023-09-29T00:37:54.742Z,9.63
2023-09-29T00:40:21.637Z,10.20
2023-09-29T00:42:48.278Z,8.55
2023-09-29T00:45:22.348Z,8.80
2023-09-29T00:47:51.196Z,8.57
2023-09-29T00:50:20.181Z,9.30
2023-09-29T00:52:48.700Z,7.72
2023-09-29T00:55:18.732Z,8.10
2023-09-29T00:57:49.328Z,9.68
2023-09-29T01:00:36.628Z,9.07
2023-09-29T01:03:09.567Z,9.30
2023-09-29T01:05:48.491Z,8.30
2023-09-29T01:08:21.467Z,9.38
2023-09-29T01:10:48.351Z,8.77
2023-09-29T01:13:16.234Z,8.90
2023-09-29T01:15:43.783Z,8.32
2023-09-29T01:18:11.302Z,8.13
2023-09-29T01:20:39.159Z,10.05
2023-09-29T01:23:06.750Z,8.23
2023-09-29T01:25:34.003Z,8.00
2023-09-29T01:28:02.873Z,8.95
2023-09-29T01:30:29.568Z,8.52
2023-09-29T01:33:01.398Z,9.75
2023-09-29T01:35:31.317Z,9.65
2023-09-29T01:38:01.671Z,8.55
2023-09-29T01:40:29.562Z,9.10
2023-09-29T01:42:59.423Z,9.73
2023-09-29T01:45:27.298Z,10.70
2023-09-29T01:47:55.760Z,9.18
2023-09-29T01:50:24.526Z,8.93
2023-09-29T01:52:52.266Z,9.60
2023-09-29T01:55:25.504Z,8.55
2023-09-29T01:57:57.051Z,9.70
2023-09-29T02:00:27.254Z,9.18
2023-09-29T02:02:56.638Z,8.75
2023-09-29T02:05:25.070Z,8.68
2023-09-29T02:07:52.398Z,9.00
2023-09-29T02:10:20.468Z,8.65
2023-09-29T02:12:54.415Z,9.48
2023-09-29T02:15:21.004Z,8.65
2023-09-29T02:17:51.236Z,10.50
2023-09-29T02:20:19.838Z,7.85
2023-09-29T02:22:46.752Z,7.88
2023-09-29T02:25:18.104Z,8.13
2023-09-29T02:27:44.683Z,7.50
2023-09-29T02:30:12.958Z,7.60
2023-09-29T02:32:44.724Z,8.38
2023-09-29T02:37:39.487Z,8.90
2023-09-29T02:40:14.359Z,8.60
2023-09-29T02:42:41.861Z,8.73
2023-09-29T02:45:08.884Z,11.45
2023-09-29T02:47:40.681Z,10.38
2023-09-29T02:50:10.189Z,10.10
2023-09-29T02:52:39.241Z,11.25
2023-09-29T02:55:07.629Z,8.55
2023-09-29T02:57:34.870Z,9.13
2023-09-29T03:00:01.578Z,8.55
2023-09-29T03:02:28.674Z,8.32
2023-09-29T03:04:55.729Z,8.38
2023-09-29T03:07:22.299Z,8.35
2023-09-29T03:09:48.847Z,9.73
2023-09-29T03:12:18.041Z,7.65
2023-09-29T03:14:44.854Z,9.35
2023-09-29T03:17:11.379Z,8.05
2023-09-29T03:19:37.945Z,7.60
2023-09-29T03:22:04.441Z,8.55
2023-09-29T03:24:31.997Z,7.65
2023-09-29T03:26:58.483Z,8.20
2023-09-29T03:29:25.084Z,9.05
2023-09-29T03:31:54.558Z,8.57
2023-09-29T03:34:22.281Z,8.10
2023-09-29T03:36:51.317Z,9.45
2023-09-29T03:39:19.623Z,8.23
2023-09-29T03:41:47.420Z,8.23
2023-09-29T03:44:14.160Z,8.43
2023-09-29T03:46:40.888Z,8.75
2023-09-29T03:49:07.535Z,8.88
2023-09-29T03:51:34.862Z,8.85
2023-09-29T03:54:01.670Z,9.00
2023-09-29T03:56:28.385Z,8.13
2023-09-29T03:58:55.413Z,9.52
2023-09-29T04:01:23.424Z,10.50
2023-09-29T04:03:50.521Z,10.88
2023-09-29T04:06:17.659Z,9.18
2023-09-29T04:08:44.931Z,8.70
2023-09-29T04:11:13.345Z,9.35
2023-09-29T04:13:40.108Z,8.25
2023-09-29T04:16:07.525Z,7.70
2023-09-29T04:18:34.190Z,8.40
2023-09-29T04:21:05.255Z,8.00
2023-09-29T04:23:32.827Z,10.27
2023-09-29T04:25:59.641Z,8.90
2023-09-29T04:28:26.381Z,8.10
2023-09-29T04:30:52.948Z,8.57
2023-09-29T04:33:20.077Z,7.90
2023-09-29T04:35:46.789Z,8.30
2023-09-29T04:38:13.364Z,8.07
2023-09-29T04:40:40.144Z,8.50
2023-09-29T04:43:07.031Z,7.95
2023-09-29T04:45:35.331Z,9.93
2023-09-29T04:48:03.176Z,8.32
2023-09-29T04:50:31.005Z,10.00
2023-09-29T04:52:57.982Z,7.47
2023-09-29T04:55:24.610Z,9.57
2023-09-29T04:57:53.741Z,10.52
2023-09-29T05:00:20.773Z,8.98
2023-09-29T05:02:48.550Z,8.13
2023-09-29T05:05:15.098Z,7.72
2023-09-29T05:07:44.490Z,8.30
2023-09-29T05:10:14.927Z,8.38
2023-09-29T05:12:42.206Z,8.00
2023-09-29T05:15:10.498Z,9.13
2023-09-29T05:20:11.889Z,9.48
2023-09-29T05:22:42.016Z,8.30
2023-09-29T05:25:11.428Z,9.13
2023-09-29T05:27:38.053Z,10.05
2023-09-29T05:30:06.292Z,8.25
2023-09-29T05:32:32.941Z,8.95
2023-09-29T05:35:00.053Z,9.80
2023-09-29T05:37:27.863Z,9.43
2023-09-29T05:39:54.699Z,9.38
2023-09-29T05:42:30.388Z,11.43
2023-09-29T05:44:58.051Z,8.75
2023-09-29T05:47:27.995Z,8.73
2023-09-29T05:50:03.320Z,8.95
2023-09-29T05:52:44.250Z,11.32
2023-09-29T05:55:14.715Z,10.13
2023-09-29T05:57:41.226Z,9.18
2023-09-29T06:00:08.470Z,8.52
2023-09-29T06:02:35.959Z,10.25
2023-09-29T06:05:02.672Z,9.13
2023-09-29T06:07:29.325Z,9.52
2023-09-29T06:09:55.841Z,9.05
2023-09-29T06:12:22.346Z,11.68
2023-09-29T06:14:49.887Z,10.40
2023-09-29T06:17:16.480Z,9.77
2023-09-29T06:19:43.079Z,9.20
2023-09-29T06:22:09.648Z,10.93
2023-09-29T06:24:36.227Z,10.20
2023-09-29T06:27:03.206Z,10.82
2023-09-29T06:29:29.776Z,9.98
2023-09-29T06:31:56.407Z,10.65
2023-09-29T06:34:23.128Z,10.07
2023-09-29T06:36:49.816Z,11.18
2023-09-29T06:39:16.434Z,10.38
2023-09-29T06:41:49.037Z,10.63
2023-09-29T06:44:15.587Z,9.10
2023-09-29T06:46:43.181Z,9.30
2023-09-29T06:49:09.982Z,9.40
2023-09-29T06:51:37.681Z,11.23
2023-09-29T06:54:05.483Z,8.98
2023-09-29T06:56:34.130Z,8.73
2023-09-29T06:59:02.853Z,10.25
2023-09-29T07:01:31.690Z,10.18
2023-09-29T07:03:58.399Z,10.65
2023-09-29T07:06:28.932Z,9.57
2023-09-29T07:08:55.811Z,10.18
2023-09-29T07:11:23.254Z,12.40
2023-09-29T07:13:50.530Z,9.85
2023-09-29T07:16:19.494Z,10.25
2023-09-29T07:18:49.208Z,9.75
2023-09-29T07:21:16.642Z,9.82
2023-09-29T07:23:43.285Z,10.55
2023-09-29T07:26:10.018Z,12.68
2023-09-29T07:28:37.579Z,12.07
2023-09-29T07:31:05.231Z,11.32
2023-09-29T07:33:33.998Z,11.32
2023-09-29T07:36:00.634Z,10.90
2023-09-29T07:38:27.197Z,14.48
2023-09-29T07:40:53.839Z,11.15
2023-09-29T07:43:20.316Z,11.90
2023-09-29T07:45:48.821Z,11.15
2023-09-29T07:48:17.322Z,11.15
2023-09-29T07:50:45.091Z,12.25
2023-09-29T07:53:12.712Z,12.48
2023-09-29T07:55:40.773Z,9.75
2023-09-29T07:58:07.600Z,11.40
2023-09-29T08:00:34.381Z,11.30
2023-09-29T08:03:01.600Z,13.60
2023-09-29T08:05:28.552Z,12.70
2023-09-29T08:07:55.306Z,11.15
2023-09-29T08:10:21.934Z,11.13
2023-09-29T08:12:50.594Z,11.75
2023-09-29T08:15:18.244Z,13.98
2023-09-29T08:17:45.583Z,13.93
2023-09-29T08:20:13.987Z,11.82
2023-09-29T08:22:41.940Z,13.63
2023-09-29T08:25:10.313Z,12.65
2023-09-29T08:27:40.276Z,15.23
2023-09-29T08:30:11.624Z,14.93
2023-09-29T08:32:40.600Z,17.40
2023-09-29T08:35:07.724Z,16.38
2023-09-29T08:37:35.496Z,13.07
2023-09-29T08:40:02.187Z,16.02
2023-09-29T08:42:39.903Z,17.98
2023-09-29T08:45:11.201Z,15.65
2023-09-29T08:47:39.361Z,16.10
2023-09-29T08:50:09.947Z,13.30
2023-09-29T08:52:38.189Z,14.85
2023-09-29T08:55:08.612Z,12.80
2023-09-29T08:57:35.329Z,14.77
2023-09-29T09:00:02.480Z,13.77
2023-09-29T09:02:29.288Z,13.98
2023-09-29T09:04:56.022Z,14.88
2023-09-29T09:07:22.967Z,11.23
2023-09-29T09:09:59.613Z,13.40
2023-09-29T09:12:36.476Z,13.75
2023-09-29T09:15:14.852Z,12.73
2023-09-29T09:17:41.579Z,11.05
2023-09-29T09:20:09.598Z,10.60
2023-09-29T09:22:46.407Z,13.75
2023-09-29T09:25:15.541Z,10.88
2023-09-29T09:27:44.942Z,10.48
2023-09-29T09:30:23.352Z,9.20
2023-09-29T09:32:51.229Z,10.93
2023-09-29T09:35:29.026Z,10.57
2023-09-29T09:37:57.294Z,10.27
2023-09-29T09:40:26.024Z,10.45
2023-09-29T09:43:03.889Z,10.00
2023-09-29T09:45:41.222Z,11.07
2023-09-29T09:48:11.473Z,11.00
2023-09-29T09:50:45.079Z,10.38
2023-09-29T09:53:14.849Z,9.10
2023-09-29T09:56:08.028Z,9.02
2023-09-29T09:58:35.719Z,9.38
2023-09-29T10:01:04.480Z,10.88
2023-09-29T10:03:33.941Z,9.73
2023-09-29T10:06:01.468Z,9.35
2023-09-29T10:08:33.281Z,10.05
2023-09-29T10:11:13.829Z,9.13
2023-09-29T10:13:46.460Z,11.02
2023-09-29T10:16:26.142Z,9.18
2023-09-29T10:18:58.853Z,8.50
2023-09-29T10:21:26.788Z,9.05
2023-09-29T10:23:53.522Z,9.13
2023-09-29T10:26:21.983Z,9.27
2023-09-29T10:28:48.775Z,8.98
2023-09-29T10:31:31.196Z,9.52
2023-09-29T10:34:09.909Z,9.82
2023-09-29T10:36:36.509Z,11.02
2023-09-29T10:39:05.543Z,9.60
2023-09-29T10:41:36.687Z,9.23
2023-09-29T10:44:05.647Z,9.55
2023-09-29T10:46:32.836Z,8.30
2023-09-29T10:49:00.056Z,8.85
2023-09-29T10:51:29.208Z,8.48
2023-09-29T10:54:03.817Z,8.88
2023-09-29T10:56:35.603Z,8.27
2023-09-29T10:59:07.284Z,9.60
2023-09-29T11:01:35.361Z,8.35
2023-09-29T11:04:04.011Z,8.25
2023-09-29T11:06:48.302Z,10.52
2023-09-29T11:09:17.757Z,7.78
2023-09-29T11:11:44.527Z,9.40
2023-09-29T11:14:11.141Z,8.88
2023-09-29T11:16:38.147Z,9.40
2023-09-29T11:19:12.473Z,9.07
2023-09-29T11:21:41.024Z,8.95
2023-09-29T11:24:11.854Z,9.35
2023-09-29T11:26:43.337Z,8.38
2023-09-29T11:29:23.656Z,9.20
2023-09-29T11:31:56.886Z,8.18
2023-09-29T11:34:23.993Z,9.75
2023-09-29T11:36:51.844Z,9.10
2023-09-29T11:39:20.335Z,8.57
2023-09-29T11:41:47.407Z,7.88
2023-09-29T11:44:15.189Z,8.32
2023-09-29T11:46:41.808Z,8.52
2023-09-29T11:49:11.926Z,10.10
2023-09-29T11:51:38.586Z,7.60
2023-09-29T11:54:06.782Z,9.07
2023-09-29T11:56:33.683Z,12.00
2023-09-29T11:59:00.345Z,9.15
2023-09-29T12:01:28.412Z,7.78
2023-09-29T12:03:56.216Z,8.73
2023-09-29T12:06:23.751Z,10.00
2023-09-29T12:08:50.373Z,7.82
2023-09-29T12:11:21.952Z,8.02
2023-09-29T12:13:56.213Z,8.15
2023-09-29T12:16:23.041Z,8.25
2023-09-29T12:18:52.971Z,7.93
2023-09-29T12:21:20.616Z,8.80
2023-09-29T12:31:22.376Z,8.88
2023-09-29T12:33:55.326Z,7.93
2023-09-29T12:36:22.297Z,9.55
2023-09-29T12:38:49.964Z,8.75
2023-09-29T12:41:16.813Z,8.18
2023-09-29T12:43:44.624Z,8.30
2023-09-29T12:46:11.217Z,9.27
2023-09-29T12:48:45.267Z,8.05
2023-09-29T12:51:27.281Z,9.40
2023-09-29T12:53:55.450Z,8.30
2023-09-29T12:56:22.718Z,9.45
2023-09-29T12:58:49.230Z,7.63
2023-09-29T13:01:50.028Z,9.25
2023-09-29T13:04:30.898Z,8.30
2023-09-29T13:06:59.617Z,6.93
2023-09-29T13:09:27.051Z,7.53
2023-09-29T13:11:53.936Z,8.38
2023-09-29T13:14:21.100Z,7.93
2023-09-29T13:16:48.064Z,8.65
2023-09-29T13:19:15.021Z,9.80
2023-09-29T13:21:43.161Z,7.82
2023-09-29T13:24:11.054Z,10.07
2023-09-29T13:26:37.630Z,7.80
2023-09-29T13:29:04.195Z,8.60
2023-09-29T13:31:31.195Z,9.05
2023-09-29T13:33:57.890Z,8.77
2023-09-29T13:36:24.847Z,7.57
2023-09-29T13:38:51.509Z,8.13
2023-09-29T13:41:19.699Z,9.90
2023-09-29T13:43:46.296Z,7.90
2023-09-29T13:46:13.676Z,7.65
2023-09-29T13:48:40.665Z,8.05
2023-09-29T13:51:08.164Z,8.57
2023-09-29T13:53:35.709Z,9.50
2023-09-29T13:56:07.703Z,9.45
2023-09-29T13:58:34.878Z,8.68
2023-09-29T14:01:03.439Z,7.88
2023-09-29T14:03:30.564Z,10.75
2023-09-29T14:05:57.253Z,7.13
2023-09-29T14:08:23.866Z,8.90
2023-09-29T14:10:51.631Z,8.75
2023-09-29T14:13:18.492Z,9.90
2023-09-29T14:15:45.169Z,9.02
2023-09-29T14:18:11.809Z,10.50
2023-09-29T14:20:38.591Z,8.43
2023-09-29T14:23:08.221Z,8.35
2023-09-29T14:25:34.880Z,8.15
2023-09-29T14:28:02.354Z,7.50
2023-09-29T14:30:30.901Z,9.57
2023-09-29T14:33:03.451Z,8.57
2023-09-29T14:38:02.694Z,9.52
2023-09-29T14:40:29.287Z,7.95
2023-09-29T14:42:57.814Z,7.97
2023-09-29T14:45:24.355Z,7.45
2023-09-29T14:47:51.020Z,9.60
2023-09-29T14:50:17.531Z,9.68
2023-09-29T14:52:44.127Z,7.60
2023-09-29T14:55:11.957Z,8.00
2023-09-29T14:57:38.493Z,9.10
2023-09-29T15:00:08.478Z,8.73
2023-09-29T15:02:35.060Z,7.93
2023-09-29T15:05:01.994Z,8.98
2023-09-29T15:07:28.701Z,10.63
2023-09-29T15:09:55.277Z,8.93
2023-09-29T15:12:23.813Z,10.10
2023-09-29T15:14:52.965Z,11.77
2023-09-29T15:17:19.839Z,8.10
2023-09-29T15:19:46.397Z,9.18
2023-09-29T15:22:13.048Z,11.07
2023-09-29T15:24:39.975Z,10.02
2023-09-29T15:27:07.526Z,8.25
2023-09-29T15:29:34.533Z,8.38
2023-09-29T15:32:01.033Z,7.90
2023-09-29T15:34:31.132Z,8.20
2023-09-29T15:36:57.721Z,8.65
2023-09-29T15:39:24.347Z,8.10
2023-09-29T15:41:50.943Z,8.27
2023-09-29T15:44:19.070Z,7.53
2023-09-29T15:46:46.260Z,7.95
2023-09-29T15:49:13.846Z,10.38
2023-09-29T15:51:40.359Z,10.05
2023-09-29T15:54:07.004Z,9.15
2023-09-29T15:56:33.616Z,10.68
2023-09-29T15:59:00.351Z,9.07
2023-09-29T16:01:27.467Z,8.20
2023-09-29T16:03:54.248Z,6.88
2023-09-29T16:06:21.745Z,7.68
2023-09-29T16:08:48.577Z,9.38
2023-09-29T16:11:15.213Z,8.65
2023-09-29T16:13:41.752Z,9.98
2023-09-29T16:16:08.405Z,7.72
2023-09-29T16:18:35.550Z,7.97
2023-09-29T16:21:03.130Z,9.68
2023-09-29T16:23:30.073Z,10.70
2023-09-29T16:25:57.055Z,8.60
2023-09-29T16:28:23.906Z,8.75
2023-09-29T16:30:52.018Z,9.48
2023-09-29T16:33:18.804Z,8.38
2023-09-29T16:35:45.391Z,10.05
2023-09-29T16:38:11.932Z,10.48
2023-09-29T16:40:39.482Z,7.32
2023-09-29T16:43:06.213Z,8.13
2023-09-29T16:45:33.005Z,10.57
2023-09-29T16:47:59.623Z,7.90
2023-09-29T16:50:26.199Z,11.75
2023-09-29T16:52:52.717Z,8.38
2023-09-29T16:55:20.214Z,10.30
2023-09-29T16:57:46.752Z,8.23
2023-09-29T17:00:14.378Z,8.77
2023-09-29T17:02:40.917Z,8.70
2023-09-29T17:05:08.995Z,8.25
2023-09-29T17:07:35.761Z,9.13
2023-09-29T17:10:05.050Z,7.63
2023-09-29T17:12:38.421Z,8.93
2023-09-29T17:15:07.908Z,9.07
2023-09-29T17:17:34.699Z,8.15
2023-09-29T17:20:01.287Z,7.68
2023-09-29T17:22:27.865Z,8.57
2023-09-29T17:24:55.507Z,8.70
2023-09-29T17:27:22.210Z,10.57
2023-09-29T17:29:49.652Z,8.55
2023-09-29T17:32:17.043Z,7.10
2023-09-29T17:34:43.838Z,8.80
2023-09-29T17:37:10.431Z,9.07
2023-09-29T17:39:37.119Z,7.22
2023-09-29T17:42:03.995Z,8.45
2023-09-29T17:44:30.505Z,8.45
2023-09-29T17:46:57.031Z,8.88
2023-09-29T17:49:23.992Z,8.27
2023-09-29T17:51:50.593Z,8.00
2023-09-29T17:54:17.155Z,7.75
2023-09-29T17:56:44.051Z,8.40
2023-09-29T17:59:10.622Z,9.43
2023-09-29T18:01:37.237Z,7.97
2023-09-29T18:04:04.499Z,7.63
2023-09-29T18:06:32.585Z,7.85
2023-09-29T18:08:59.888Z,7.65
2023-09-29T18:11:27.683Z,7.45
2023-09-29T18:13:55.102Z,7.22
2023-09-29T18:16:21.985Z,8.85
2023-09-29T18:18:48.529Z,8.40
2023-09-29T18:21:15.080Z,7.72
2023-09-29T18:23:41.683Z,8.98
2023-09-29T18:26:09.187Z,34.88
2023-09-29T18:28:36.002Z,11.70
2023-09-29T18:31:07.124Z,13.93
2023-09-29T18:33:33.966Z,10.90
2023-09-29T18:36:04.775Z,9.30
2023-09-29T18:38:31.892Z,9.90
2023-09-29T18:40:58.405Z,8.25
2023-09-29T18:43:24.903Z,7.47
2023-09-29T18:46:00.464Z,8.48
2023-09-29T18:48:27.531Z,8.75
2023-09-29T18:50:55.424Z,7.90
2023-09-29T18:53:22.014Z,8.43
2023-09-29T18:55:48.691Z,8.00
2023-09-29T18:58:15.218Z,9.18
2023-09-29T19:00:41.996Z,7.47
2023-09-29T19:03:08.884Z,11.18
2023-09-29T19:05:38.975Z,8.50
2023-09-29T19:08:06.096Z,8.90
2023-09-29T19:10:33.137Z,9.10
2023-09-29T19:13:01.246Z,8.57
2023-09-29T19:15:27.840Z,8.00
2023-09-29T19:17:55.873Z,8.93
2023-09-29T19:20:22.589Z,8.70
2023-09-29T19:22:50.814Z,10.82
2023-09-29T19:25:18.853Z,10.18
2023-09-29T19:27:46.316Z,8.88
2023-09-29T19:30:13.375Z,9.80
2023-09-29T19:32:41.308Z,9.07
2023-09-29T19:35:08.360Z,8.18
2023-09-29T19:37:35.295Z,9.63
2023-09-29T19:40:01.836Z,9.85
2023-09-29T19:42:28.441Z,10.52
2023-09-29T19:44:55.032Z,10.23
2023-09-29T19:47:22.295Z,9.65
2023-09-29T19:49:50.323Z,9.35
2023-09-29T19:52:18.843Z,9.48
2023-09-29T19:54:45.441Z,7.82
2023-09-29T19:57:12.096Z,10.88
2023-09-29T19:59:38.728Z,11.70
2023-09-29T20:02:05.440Z,12.50
2023-09-29T20:04:32.134Z,12.43
2023-09-29T20:06:59.910Z,12.65
2023-09-29T20:09:27.092Z,13.15
2023-09-29T20:11:54.351Z,14.45
2023-09-29T20:14:21.124Z,13.63
2023-09-29T20:16:47.864Z,14.25
2023-09-29T20:19:14.621Z,15.13
2023-09-29T20:21:43.412Z,14.18
2023-09-29T20:24:10.640Z,16.38
2023-09-29T20:26:38.067Z,15.65
2023-09-29T20:29:04.730Z,16.33
2023-09-29T20:31:32.732Z,13.68
2023-09-29T20:34:00.652Z,18.15
2023-09-29T20:36:29.960Z,16.48
2023-09-29T20:38:57.388Z,16.80
2023-09-29T20:41:23.876Z,17.00
2023-09-29T20:43:50.588Z,16.40
2023-09-29T20:46:17.172Z,18.63
2023-09-29T20:48:47.451Z,18.13
2023-09-29T20:51:14.425Z,19.58
2023-09-29T20:53:41.451Z,16.83
2023-09-29T20:56:08.029Z,20.42
2023-09-29T20:58:34.630Z,19.95
2023-09-29T21:01:01.842Z,17.70
2023-09-29T21:03:28.558Z,17.60
2023-09-29T21:05:55.236Z,17.98
2023-09-29T21:08:21.803Z,21.48
2023-09-29T21:10:48.324Z,17.85
2023-09-29T21:13:14.819Z,20.05
2023-09-29T21:15:41.330Z,18.88
2023-09-29T21:18:08.383Z,20.23
2023-09-29T21:20:35.646Z,20.55
2023-09-29T21:23:02.134Z,20.13
2023-09-29T21:25:28.751Z,17.50
2023-09-29T21:27:55.553Z,18.38
2023-09-29T21:30:23.362Z,20.45
2023-09-29T21:32:49.990Z,18.88
2023-09-29T21:35:16.535Z,20.55
2023-09-29T21:37:43.228Z,18.65
2023-09-29T21:40:11.212Z,18.55
2023-09-29T21:42:38.764Z,17.73
2023-09-29T21:45:06.820Z,20.05
2023-09-29T21:47:33.418Z,17.55
2023-09-29T21:50:00.054Z,17.80
2023-09-29T21:52:26.787Z,18.88
2023-09-29T21:54:53.311Z,21.05
2023-09-29T21:57:20.052Z,19.02
2023-09-29T21:59:46.602Z,19.33
2023-09-29T22:02:13.122Z,18.98
2023-09-29T22:04:41.447Z,19.25
2023-09-29T22:07:08.049Z,18.08
2023-09-29T22:09:35.005Z,19.05
2023-09-29T22:12:01.805Z,21.23
2023-09-29T22:14:29.574Z,19.08
2023-09-29T22:16:57.061Z,18.38
2023-09-29T22:19:24.682Z,20.60
2023-09-29T22:21:52.648Z,19.35
2023-09-29T22:24:20.764Z,20.27
2023-09-29T22:26:49.374Z,19.90
2023-09-29T22:29:16.389Z,20.40
2023-09-29T22:31:45.634Z,18.52
2023-09-29T22:34:12.256Z,22.45
2023-09-29T22:36:38.898Z,22.10
2023-09-29T22:39:07.791Z,19.88
2023-09-29T22:41:34.430Z,18.70
2023-09-29T22:44:02.460Z,20.55
2023-09-29T22:46:29.125Z,20.33
2023-09-29T22:48:56.221Z,20.23
2023-09-29T22:51:23.048Z,18.90
2023-09-29T22:53:49.627Z,21.38
2023-09-29T22:56:16.463Z,19.45
2023-09-29T22:58:43.383Z,19.35
2023-09-29T23:01:16.076Z,21.98
2023-09-29T23:03:42.804Z,22.40
2023-09-29T23:06:09.431Z,20.75
2023-09-29T23:08:36.128Z,22.30
2023-09-29T23:11:02.688Z,21.45
2023-09-29T23:13:29.234Z,22.17
2023-09-29T23:15:55.895Z,20.83
2023-09-29T23:18:22.669Z,19.63
2023-09-29T23:20:50.011Z,19.33
2023-09-29T23:23:16.523Z,21.70
2023-09-29T23:25:44.581Z,18.75
2023-09-29T23:28:12.104Z,22.75
2023-09-29T23:30:39.595Z,19.80
2023-09-29T23:33:06.473Z,21.45
2023-09-29T23:35:33.767Z,21.55
2023-09-29T23:38:00.592Z,18.85
2023-09-29T23:40:27.213Z,22.67
2023-09-29T23:42:53.855Z,20.55
2023-09-29T23:45:20.656Z,23.00
2023-09-29T23:47:51.269Z,19.00
2023-09-29T23:50:18.595Z,19.93
2023-09-29T23:52:45.229Z,17.67
2023-09-29T23:55:12.751Z,19.90
2023-09-29T23:57:40.893Z,19.73
